Time;durP1;ratioP1;P1;durP2;ratioP2;P2;SDS_P1;SDS_P2;PMS_P1;PMS_P2;Temp;Humidity;BMP_temperature;BMP_pressure;BME280_temperature;BME280_humidity;BME280_pressure;Samples;Min_cycle;Max_cycle;Signal;HPM_P1;HPM_P2
2024/04/04 00:02:00;;;;;;;2.50;1.20;;;;;;;18.03;45.82;101463.39;107125;1264;22527;-55
2024/04/04 00:04:28;;;;;;;2.10;1.20;;;;;;;18.06;45.69;101466.29;106847;1270;25368;-55
2024/04/04 00:06:55;;;;;;;1.80;1.20;;;;;;;18.04;45.39;101465.13;107078;1257;25500;-55
2024/04/04 00:09:22;;;;;;;2.60;1.10;;;;;;;18.01;45.36;101466.11;107216;1264;25443;-55
2024/04/04 00:11:51;;;;;;;1.50;1.30;;;;;;;18.00;45.32;101471.10;107093;1264;25369;-55
2024/04/04 00:14:17;;;;;;;3.70;1.10;;;;;;;17.97;45.43;101474.02;107260;1264;25351;-55
2024/04/04 00:16:44;;;;;;;2.20;1.10;;;;;;;17.92;45.58;101477.73;106904;1267;25431;-55
2024/04/04 00:19:11;;;;;;;1.40;1.10;;;;;;;17.91;45.61;101475.14;107049;1267;25355;-55
2024/04/04 00:21:38;;;;;;;1.10;1.00;;;;;;;17.86;45.47;101474.48;107097;1266;25428;-55
2024/04/04 00:24:06;;;;;;;1.90;1.10;;;;;;;17.81;45.48;101479.90;107163;1258;25407;-55
2024/04/04 00:26:33;;;;;;;6.20;1.80;;;;;;;17.90;45.29;101473.77;106868;1267;25360;-55
2024/04/04 00:29:00;;;;;;;7.80;1.50;;;;;;;17.92;45.75;101480.88;107153;1256;25447;-55
2024/04/04 00:31:27;;;;;;;6.10;1.70;;;;;;;17.90;46.52;101475.00;107121;1261;23917;-55
2024/04/04 00:34:06;;;;;;;5.60;1.80;;;;;;;17.85;46.73;101475.52;106991;1267;25392;-55
2024/04/04 00:36:33;;;;;;;6.40;1.40;;;;;;;17.83;46.86;101475.11;107008;1261;25371;-55
2024/04/04 00:39:00;;;;;;;4.40;1.30;;;;;;;17.80;46.68;101476.27;106754;1260;25469;-56
2024/04/04 00:41:28;;;;;;;4.10;1.40;;;;;;;17.77;46.69;101478.65;107097;1264;25425;-54
2024/04/04 00:43:55;;;;;;;6.40;1.60;;;;;;;17.76;46.69;101477.66;107008;1251;25382;-55
2024/04/04 00:46:23;;;;;;;4.20;1.60;;;;;;;17.74;46.84;101472.13;107181;1263;25497;-55
2024/04/04 00:48:50;;;;;;;2.60;1.50;;;;;;;17.74;46.89;101471.05;107047;1257;25328;-55
2024/04/04 00:51:17;;;;;;;3.20;1.50;;;;;;;17.74;47.09;101469.11;107075;1255;25341;-55
2024/04/04 00:53:44;;;;;;;7.10;1.30;;;;;;;17.75;47.21;101468.41;106837;1260;25394;-55
2024/04/04 00:56:12;;;;;;;2.60;1.20;;;;;;;17.75;47.29;101469.95;106833;1259;22798;-55
2024/04/04 00:58:39;;;;;;;1.70;1.10;;;;;;;17.77;47.12;101470.75;106736;1258;25453;-55
2024/04/04 01:01:06;;;;;;;2.40;1.30;;;;;;;17.79;46.99;101469.29;106849;1270;25542;-55
2024/04/04 01:03:33;;;;;;;2.50;1.30;;;;;;;17.79;46.85;101472.95;107110;1265;25358;-56
2024/04/04 01:06:00;;;;;;;2.30;1.60;;;;;;;17.81;46.78;101469.55;107124;1257;25407;-57
2024/04/04 01:08:27;;;;;;;2.80;1.60;;;;;;;17.83;46.70;101473.49;107053;1252;25498;-56
2024/04/04 01:10:54;;;;;;;1.30;1.20;;;;;;;17.85;46.55;101470.61;106705;1275;25361;-56
2024/04/04 01:13:21;;;;;;;2.00;1.50;;;;;;;17.86;46.37;101472.17;107019;1257;25439;-55
2024/04/04 01:15:48;;;;;;;4.30;1.70;;;;;;;17.85;46.51;101475.52;106982;1258;25344;-56
2024/04/04 01:18:20;;;;;;;2.50;1.60;;;;;;;17.85;46.23;101475.89;106819;1267;25420;-56
2024/04/04 01:20:48;;;;;;;3.00;1.90;;;;;;;17.83;46.06;101465.62;107163;1257;25382;-56
2024/04/04 01:23:15;;;;;;;3.00;2.10;;;;;;;17.79;46.15;101467.88;107111;1257;25418;-56
2024/04/04 01:25:42;;;;;;;4.20;1.70;;;;;;;17.75;46.08;101466.30;107077;1264;25341;-56
2024/04/04 01:28:08;;;;;;;2.70;1.60;;;;;;;17.71;46.12;101466.08;106747;1261;25410;-55
2024/04/04 01:30:35;;;;;;;4.00;1.90;;;;;;;17.69;46.07;101464.79;106848;1260;22796;-56
2024/04/04 01:33:02;;;;;;;1.50;1.20;;;;;;;17.67;46.09;101463.29;107095;1253;25383;-55
2024/04/04 01:35:30;;;;;;;4.20;1.30;;;;;;;17.65;45.89;101461.10;106964;1267;25506;-55
2024/04/04 01:37:57;;;;;;;1.90;1.70;;;;;;;17.63;45.74;101458.88;107125;1256;25369;-55
2024/04/04 01:40:24;;;;;;;1.40;1.30;;;;;;;17.51;45.72;101453.91;107067;1261;25376;-55
2024/04/04 01:42:51;;;;;;;3.30;1.30;;;;;;;17.59;45.37;101454.99;106768;1274;25490;-55
2024/04/04 01:45:17;;;;;;;3.20;1.30;;;;;;;17.60;45.21;101457.59;107080;1263;22529;-55
2024/04/04 01:47:44;;;;;;;2.30;1.50;;;;;;;17.58;44.97;101458.37;106740;1263;25399;-55
2024/04/04 01:50:11;;;;;;;3.20;1.80;;;;;;;17.46;45.13;101456.40;106828;1269;25590;-56
2024/04/04 01:52:38;;;;;;;3.20;1.60;;;;;;;17.38;45.21;101451.09;106814;1267;25359;-56
2024/04/04 01:55:05;;;;;;;3.30;1.50;;;;;;;17.34;45.13;101459.11;106940;1252;25555;-56
2024/04/04 01:57:33;;;;;;;2.40;1.30;;;;;;;17.29;45.10;101459.47;106871;1257;25489;-56
2024/04/04 01:59:59;;;;;;;1.70;1.40;;;;;;;17.37;44.88;101456.39;106709;1266;22536;-56
2024/04/04 02:02:26;;;;;;;3.00;1.60;;;;;;;17.37;44.81;101456.55;106815;1260;25652;-56
2024/04/04 02:04:53;;;;;;;4.70;1.60;;;;;;;17.36;44.87;101459.77;106775;1269;25392;-56
2024/04/04 02:07:20;;;;;;;2.20;1.30;;;;;;;17.30;44.73;101457.37;107111;1256;25414;-56
2024/04/04 02:09:47;;;;;;;2.60;1.20;;;;;;;17.24;44.90;101454.07;106969;1257;25491;-55
2024/04/04 02:12:14;;;;;;;2.80;1.20;;;;;;;17.23;44.95;101455.34;107054;1264;24257;-56
2024/04/04 02:14:41;;;;;;;5.00;1.10;;;;;;;17.23;44.78;101450.41;107090;1256;24041;-56
2024/04/04 02:17:08;;;;;;;1.80;1.10;;;;;;;17.23;44.60;101447.98;106999;1257;25352;-55
2024/04/04 02:19:35;;;;;;;2.70;1.20;;;;;;;17.21;44.40;101451.89;106868;1257;25450;-56
2024/04/04 02:22:02;;;;;;;4.20;1.20;;;;;;;17.21;44.13;101456.48;106785;1254;25252;-56
2024/04/04 02:24:29;;;;;;;1.60;1.20;;;;;;;17.20;44.01;101457.23;106865;1257;25448;-56
2024/04/04 02:26:56;;;;;;;1.60;1.30;;;;;;;17.19;44.02;101456.00;106684;1253;24375;-56
2024/04/04 02:29:24;;;;;;;1.90;1.30;;;;;;;17.16;44.20;101457.73;106858;1257;25379;-56
2024/04/04 02:31:51;;;;;;;6.70;1.60;;;;;;;17.11;44.41;101454.39;106684;1253;23963;-56
2024/04/04 02:34:18;;;;;;;1.40;1.10;;;;;;;17.10;44.50;101445.84;106869;1253;25549;-55
2024/04/04 02:36:45;;;;;;;1.70;1.30;;;;;;;17.05;44.63;101447.98;106795;1256;25389;-55
2024/04/04 02:39:15;;;;;;;2.20;1.50;;;;;;;17.11;44.65;101451.43;106634;1265;22530;-55
2024/04/04 02:41:42;;;;;;;2.20;1.40;;;;;;;17.13;44.59;101452.55;106626;1269;25380;-55
2024/04/04 02:44:10;;;;;;;2.40;1.40;;;;;;;17.13;44.22;101447.13;106413;1264;1002999;-55
2024/04/04 02:46:37;;;;;;;2.60;1.30;;;;;;;17.08;43.85;101445.23;107067;1251;25362;-55
2024/04/04 02:49:04;;;;;;;2.90;1.30;;;;;;;17.01;44.15;101443.02;107131;1251;25358;-55
2024/04/04 02:51:32;;;;;;;2.30;1.40;;;;;;;16.99;44.49;101444.16;106786;1267;25389;-55
2024/04/04 02:53:59;;;;;;;2.60;1.40;;;;;;;17.01;44.72;101451.12;107127;1263;22551;-56
2024/04/04 02:56:26;;;;;;;3.50;1.30;;;;;;;17.03;44.72;101452.77;107044;1265;25328;-55
2024/04/04 02:58:53;;;;;;;1.50;1.30;;;;;;;17.05;44.84;101448.13;107053;1262;25393;-55
2024/04/04 03:01:21;;;;;;;3.40;1.30;;;;;;;17.08;44.68;101446.29;106948;1259;25379;-55
2024/04/04 03:03:48;;;;;;;2.80;1.10;;;;;;;17.11;44.29;101450.03;106862;1260;25391;-55
2024/04/04 03:06:18;;;;;;;2.00;1.20;;;;;;;17.17;44.02;101448.06;107169;1264;25491;-55
2024/04/04 03:08:45;;;;;;;6.50;1.30;;;;;;;17.18;43.74;101452.89;107099;1263;25362;-55
2024/04/04 03:11:12;;;;;;;3.90;1.20;;;;;;;17.19;43.51;101454.10;107098;1261;25359;-55
2024/04/04 03:13:39;;;;;;;3.70;1.60;;;;;;;17.17;43.53;101456.09;106942;1267;25370;-55
2024/04/04 03:16:06;;;;;;;2.00;1.40;;;;;;;17.16;43.62;101451.20;107034;1264;25355;-56
2024/04/04 03:18:34;;;;;;;2.30;1.60;;;;;;;17.14;43.84;101450.95;107064;1264;25344;-55
2024/04/04 03:21:00;;;;;;;4.10;1.50;;;;;;;17.12;43.86;101451.72;107136;1264;24373;-55
2024/04/04 03:23:27;;;;;;;1.50;1.00;;;;;;;17.08;43.79;101450.99;106800;1267;25413;-55
2024/04/04 03:25:56;;;;;;;1.70;1.40;;;;;;;17.07;43.77;101452.45;107123;1262;25344;-55
2024/04/04 03:28:23;;;;;;;4.50;2.90;;;;;;;17.09;43.48;101457.42;107013;1264;25377;-55
2024/04/04 03:30:50;;;;;;;3.70;1.80;;;;;;;17.10;43.16;101458.79;107157;1260;25359;-55
2024/04/04 03:33:17;;;;;;;2.50;1.70;;;;;;;17.02;43.10;101456.85;107062;1259;25309;-55
2024/04/04 03:35:44;;;;;;;5.50;3.20;;;;;;;16.93;43.33;101457.52;107056;1262;25351;-56
2024/04/04 03:38:11;;;;;;;4.50;2.30;;;;;;;16.94;43.56;101458.17;107153;1251;25418;-55
2024/04/04 03:40:38;;;;;;;4.10;2.00;;;;;;;16.92;43.85;101451.06;107028;1264;23409;-56
2024/04/04 03:43:06;;;;;;;8.50;1.90;;;;;;;16.89;44.13;101452.58;107067;1263;24373;-57
2024/04/04 03:45:39;;;;;;;3.70;2.10;;;;;;;16.84;43.93;101459.08;107177;1253;25371;-56
2024/04/04 03:48:07;;;;;;;3.50;1.70;;;;;;;16.77;43.84;101453.91;106467;1264;1003772;-55
2024/04/04 03:50:33;;;;;;;3.50;1.90;;;;;;;16.74;43.89;101450.36;106834;1268;22528;-55
2024/04/04 03:53:00;;;;;;;3.20;2.00;;;;;;;16.72;44.29;101452.16;107089;1266;22521;-55
2024/04/04 03:55:27;;;;;;;8.10;5.70;;;;;;;16.71;44.29;101455.52;106835;1259;25351;-55
2024/04/04 03:57:54;;;;;;;11.50;8.00;;;;;;;16.72;44.16;101456.91;107089;1264;25418;-55
2024/04/04 04:00:21;;;;;;;10.80;9.10;;;;;;;16.67;44.03;101461.11;107010;1260;25341;-55
2024/04/04 04:02:48;;;;;;;12.70;9.30;;;;;;;16.67;43.77;101458.31;107196;1262;25444;-55
2024/04/04 04:05:16;;;;;;;9.10;7.10;;;;;;;16.68;43.73;101463.17;107151;1256;23336;-56
2024/04/04 04:07:43;;;;;;;7.90;6.30;;;;;;;16.73;43.77;101466.85;106664;1275;25377;-56
2024/04/04 04:10:10;;;;;;;10.80;6.70;;;;;;;16.73;43.85;101465.96;107132;1265;25492;-56
2024/04/04 04:12:38;;;;;;;5.30;4.50;;;;;;;16.70;44.03;101469.07;106848;1267;25389;-56
2024/04/04 04:15:05;;;;;;;4.90;3.30;;;;;;;16.68;43.78;101468.96;107166;1262;23256;-56
2024/04/04 04:17:32;;;;;;;6.40;3.10;;;;;;;16.67;43.64;101470.40;107202;1262;25364;-56
2024/04/04 04:19:59;;;;;;;4.40;2.70;;;;;;;16.67;43.63;101474.77;107051;1264;25344;-56
2024/04/04 04:22:26;;;;;;;5.80;2.60;;;;;;;16.69;43.67;101478.01;107094;1256;25350;-56
2024/04/04 04:24:53;;;;;;;5.10;2.20;;;;;;;16.72;43.72;101484.08;107120;1266;25491;-56
2024/04/04 04:27:20;;;;;;;11.00;3.40;;;;;;;16.74;44.03;101481.69;107088;1264;25421;-56
2024/04/04 04:29:46;;;;;;;7.40;3.80;;;;;;;16.79;44.59;101480.14;107180;1260;22530;-55
2024/04/04 04:32:13;;;;;;;4.70;3.00;;;;;;;16.81;44.80;101478.27;106917;1264;25250;-55
2024/04/04 04:34:40;;;;;;;6.30;3.10;;;;;;;16.84;44.86;101477.84;106863;1260;24061;-55
2024/04/04 04:37:07;;;;;;;7.10;2.70;;;;;;;16.88;44.84;101476.30;106787;1263;25415;-56
2024/04/04 04:39:35;;;;;;;7.90;2.50;;;;;;;16.90;45.25;101475.86;106797;1258;25351;-56
2024/04/04 04:42:02;;;;;;;6.80;2.10;;;;;;;16.93;45.93;101476.79;106024;1269;1002886;-56
2024/04/04 04:44:28;;;;;;;6.60;2.10;;;;;;;16.97;46.25;101475.45;106954;1268;25366;-55
2024/04/04 04:46:56;;;;;;;2.70;1.70;;;;;;;17.01;46.21;101477.38;106918;1267;25492;-56
2024/04/04 04:49:23;;;;;;;10.00;2.20;;;;;;;17.06;45.95;101475.29;107129;1266;25338;-56
2024/04/04 04:51:50;;;;;;;10.80;2.50;;;;;;;17.16;45.53;101480.51;106907;1263;25354;-56
2024/04/04 04:54:18;;;;;;;6.50;2.10;;;;;;;17.24;45.69;101487.55;107010;1266;25352;-56
2024/04/04 04:56:45;;;;;;;3.40;1.60;;;;;;;17.24;46.55;101490.02;106160;1263;1002899;-56
2024/04/04 04:59:12;;;;;;;3.80;1.10;;;;;;;17.27;47.39;101492.54;106697;1262;25440;-56
2024/04/04 05:01:39;;;;;;;2.80;1.30;;;;;;;17.31;48.11;101490.98;106711;1263;25590;-56
2024/04/04 05:04:06;;;;;;;5.60;1.20;;;;;;;17.34;48.55;101485.97;106818;1266;25419;-56
2024/04/04 05:06:34;;;;;;;3.10;1.10;;;;;;;17.37;49.03;101480.77;106835;1267;25962;-56
2024/04/04 05:09:03;;;;;;;1.90;1.10;;;;;;;17.41;49.18;101480.96;106812;1263;25480;-56
2024/04/04 05:11:30;;;;;;;5.30;1.10;;;;;;;17.45;49.27;101476.77;106807;1265;22530;-56
2024/04/04 05:13:57;;;;;;;3.50;1.80;;;;;;;17.50;49.34;101481.66;106885;1262;25451;-56
2024/04/04 05:16:24;;;;;;;2.90;1.50;;;;;;;17.56;49.28;101485.48;107027;1262;22658;-56
2024/04/04 05:18:51;;;;;;;3.40;1.40;;;;;;;17.61;49.15;101490.70;106970;1269;25369;-56
2024/04/04 05:21:18;;;;;;;5.20;1.80;;;;;;;17.67;48.98;101489.60;107107;1267;25490;-56
2024/04/04 05:23:45;;;;;;;6.20;1.70;;;;;;;17.73;48.81;101492.87;107226;1255;25559;-56
2024/04/04 05:26:12;;;;;;;3.10;1.40;;;;;;;17.79;48.56;101495.42;107174;1252;25369;-56
2024/04/04 05:28:41;;;;;;;3.50;1.40;;;;;;;17.86;48.08;101499.54;107120;1264;25340;-56
2024/04/04 05:31:07;;;;;;;1.50;1.00;;;;;;;17.93;47.82;101500.50;107146;1262;25476;-56
2024/04/04 05:33:34;;;;;;;2.20;1.00;;;;;;;17.97;48.15;101495.08;107096;1264;25352;-55
2024/04/04 05:36:02;;;;;;;2.00;1.20;;;;;;;17.98;48.49;101492.91;107054;1266;24277;-55
2024/04/04 05:38:29;;;;;;;4.30;1.70;;;;;;;18.04;48.51;101490.78;107067;1264;25379;-55
2024/04/04 05:40:56;;;;;;;3.10;1.70;;;;;;;18.12;48.25;101495.34;106816;1265;25417;-56
2024/04/04 05:43:23;;;;;;;3.20;1.50;;;;;;;18.23;47.78;101500.66;107031;1260;24241;-56
2024/04/04 05:45:51;;;;;;;6.60;1.40;;;;;;;18.33;47.74;101508.16;107114;1256;25351;-55
2024/04/04 05:48:18;;;;;;;2.80;1.10;;;;;;;18.42;47.86;101507.98;107174;1264;25386;-55
2024/04/04 05:50:45;;;;;;;3.50;1.10;;;;;;;18.48;47.97;101509.83;107150;1264;25360;-55
2024/04/04 05:53:12;;;;;;;2.60;1.10;;;;;;;18.56;48.20;101515.45;107174;1268;25552;-55
2024/04/04 05:55:39;;;;;;;4.40;1.00;;;;;;;18.63;48.25;101516.52;107107;1256;25349;-56
2024/04/04 05:58:06;;;;;;;1.40;0.80;;;;;;;18.72;48.41;101515.43;107087;1257;25376;-55
2024/04/04 06:00:33;;;;;;;1.90;1.00;;;;;;;18.85;48.42;101516.63;107165;1267;25469;-55
2024/04/04 06:03:00;;;;;;;3.20;0.80;;;;;;;19.09;47.71;101520.11;107117;1252;25380;-55
2024/04/04 06:05:28;;;;;;;4.90;1.20;;;;;;;19.34;46.95;101520.73;106861;1267;23285;-56
2024/04/04 06:07:55;;;;;;;2.40;1.10;;;;;;;19.58;46.28;101521.42;106701;1275;25294;-55
2024/04/04 06:10:22;;;;;;;3.00;1.20;;;;;;;19.85;45.42;101519.06;106848;1257;25428;-56
2024/04/04 06:12:49;;;;;;;1.70;1.10;;;;;;;20.14;44.29;101519.07;107137;1268;24252;-56
2024/04/04 06:15:16;;;;;;;4.80;1.30;;;;;;;20.40;42.96;101521.48;107173;1267;25364;-55
2024/04/04 06:17:43;;;;;;;3.60;1.30;;;;;;;20.55;42.07;101521.90;107181;1267;25431;-55
2024/04/04 06:20:10;;;;;;;6.30;1.30;;;;;;;20.64;41.56;101525.02;107077;1267;25386;-55
2024/04/04 06:22:37;;;;;;;3.40;1.60;;;;;;;20.70;41.50;101525.18;107058;1267;22545;-55
2024/04/04 06:25:04;;;;;;;2.00;1.30;;;;;;;20.85;40.85;101520.86;107096;1267;25351;-55
2024/04/04 06:27:31;;;;;;;4.50;1.50;;;;;;;20.98;40.10;101516.47;107080;1267;25395;-55
2024/04/04 06:29:58;;;;;;;4.70;1.40;;;;;;;21.05;39.67;101518.44;106948;1271;25451;-56
2024/04/04 06:32:25;;;;;;;6.20;1.20;;;;;;;21.04;40.08;101522.03;107146;1268;25382;-55
2024/04/04 06:34:52;;;;;;;3.30;1.50;;;;;;;21.07;40.64;101525.95;106856;1267;22542;-56
2024/04/04 06:37:19;;;;;;;2.30;1.40;;;;;;;21.16;40.58;101526.90;107170;1252;25501;-55
2024/04/04 06:39:46;;;;;;;3.30;1.50;;;;;;;21.20;40.35;101530.16;106984;1270;25368;-55
2024/04/04 06:42:13;;;;;;;1.80;1.10;;;;;;;21.24;39.89;101530.67;107031;1270;25479;-55
2024/04/04 06:44:41;;;;;;;2.60;1.40;;;;;;;21.29;39.46;101536.05;106778;1272;25356;-56
2024/04/04 06:47:10;;;;;;;3.30;1.30;;;;;;;21.37;39.40;101535.45;107020;1269;25428;-56
2024/04/04 06:49:38;;;;;;;7.70;1.30;;;;;;;21.39;39.10;101531.25;106851;1267;25499;-56
2024/04/04 06:52:06;;;;;;;2.00;1.20;;;;;;;21.39;38.83;101529.84;106897;1271;25341;-55
2024/04/04 06:54:33;;;;;;;2.30;1.40;;;;;;;21.43;38.22;101527.14;107205;1267;22864;-55
2024/04/04 06:57:00;;;;;;;2.10;1.20;;;;;;;21.49;37.88;101524.34;106823;1271;25412;-56
2024/04/04 06:59:27;;;;;;;2.00;1.40;;;;;;;21.62;37.64;101527.48;107012;1270;25416;-56
2024/04/04 07:01:54;;;;;;;2.60;1.40;;;;;;;21.82;37.57;101528.52;107037;1268;25559;-56
2024/04/04 07:04:21;;;;;;;2.70;1.30;;;;;;;22.04;37.43;101531.31;107021;1274;25447;-56
2024/04/04 07:06:48;;;;;;;2.20;1.50;;;;;;;22.20;37.00;101528.64;107176;1267;25403;-55
2024/04/04 07:09:15;;;;;;;3.40;1.30;;;;;;;22.23;36.78;101527.74;107316;1267;25344;-56
2024/04/04 07:11:42;;;;;;;3.50;1.50;;;;;;;22.23;36.82;101530.73;107082;1267;25418;-56
2024/04/04 07:14:09;;;;;;;3.10;1.30;;;;;;;22.27;36.90;101526.95;107194;1267;25354;-56
2024/04/04 07:16:36;;;;;;;5.50;1.70;;;;;;;22.42;36.92;101532.09;107040;1270;25075;-56
2024/04/04 07:19:04;;;;;;;4.40;1.50;;;;;;;22.68;37.05;101530.40;107155;1267;25525;-56
2024/04/04 07:21:31;;;;;;;2.40;1.40;;;;;;;23.04;36.74;101528.56;107171;1269;22674;-57
2024/04/04 07:23:58;;;;;;;2.80;1.20;;;;;;;23.34;36.03;101529.70;106792;1275;25440;-56
2024/04/04 07:26:25;;;;;;;4.40;1.40;;;;;;;23.65;34.91;101526.63;107428;1254;25419;-57
2024/04/04 07:28:52;;;;;;;2.50;1.50;;;;;;;23.91;34.50;101531.30;107205;1265;25354;-56
2024/04/04 07:31:20;;;;;;;2.80;1.50;;;;;;;24.10;33.99;101531.02;107451;1267;23225;-56
2024/04/04 07:33:47;;;;;;;4.30;1.20;;;;;;;24.17;33.86;101528.23;107142;1269;24334;-57
2024/04/04 07:36:14;;;;;;;4.00;1.60;;;;;;;24.14;33.72;101536.24;107046;1266;25491;-57
2024/04/04 07:38:42;;;;;;;3.20;1.70;;;;;;;23.98;34.17;101539.35;107289;1266;25447;-57
2024/04/04 07:41:09;;;;;;;4.40;1.40;;;;;;;23.77;34.77;101539.90;106912;1268;25512;-56
2024/04/04 07:43:36;;;;;;;4.40;1.40;;;;;;;23.51;35.28;101540.34;107103;1271;22606;-57
2024/04/04 07:46:06;;;;;;;2.70;1.10;;;;;;;23.29;35.28;101541.52;107280;1267;25432;-57
2024/04/04 07:48:33;;;;;;;3.30;1.10;;;;;;;23.11;34.83;101537.67;107094;1267;24235;-56
2024/04/04 07:51:00;;;;;;;1.40;0.90;;;;;;;22.98;34.58;101534.08;107167;1268;25351;-56
2024/04/04 07:53:27;;;;;;;3.10;1.10;;;;;;;22.88;34.38;101529.54;107207;1268;25369;-56
2024/04/04 07:55:55;;;;;;;2.50;1.20;;;;;;;22.81;34.13;101531.72;106959;1267;24017;-56
2024/04/04 07:58:23;;;;;;;1.90;0.70;;;;;;;22.81;33.88;101531.94;107082;1267;25554;-57
2024/04/04 08:00:50;;;;;;;3.20;1.30;;;;;;;22.77;33.56;101528.27;106750;1267;25427;-57
2024/04/04 08:03:17;;;;;;;2.20;0.90;;;;;;;22.75;33.10;101529.30;107065;1267;25403;-56
2024/04/04 08:05:44;;;;;;;2.10;0.90;;;;;;;22.74;32.67;101531.86;107147;1270;25380;-56
2024/04/04 08:08:12;;;;;;;1.80;1.00;;;;;;;22.73;33.33;101533.64;107205;1268;24202;-56
2024/04/04 08:10:39;;;;;;;1.60;0.80;;;;;;;22.71;34.11;101534.66;106803;1274;25344;-56
2024/04/04 08:13:07;;;;;;;1.20;0.90;;;;;;;22.70;34.36;101536.31;107277;1267;25405;-57
2024/04/04 08:15:34;;;;;;;2.90;1.20;;;;;;;22.70;34.67;101532.40;107088;1268;25383;-56
2024/04/04 08:18:01;;;;;;;2.60;1.20;;;;;;;22.72;34.62;101524.69;106731;1271;25422;-56
2024/04/04 08:20:28;;;;;;;3.20;0.90;;;;;;;22.75;34.08;101523.07;107002;1266;25379;-56
2024/04/04 08:22:56;;;;;;;2.80;1.10;;;;;;;22.78;34.03;101523.08;107262;1267;23165;-56
2024/04/04 08:25:23;;;;;;;3.10;0.90;;;;;;;22.80;33.62;101524.04;107682;1266;25351;-56
2024/04/04 08:27:50;;;;;;;1.00;0.80;;;;;;;22.80;33.65;101524.38;107484;1266;25351;-56
2024/04/04 08:30:17;;;;;;;2.20;0.80;;;;;;;22.80;33.76;101518.70;107204;1266;25897;-57
2024/04/04 08:32:44;;;;;;;3.80;1.20;;;;;;;22.83;33.36;101518.91;107364;1266;25413;-56
2024/04/04 08:35:11;;;;;;;1.70;1.00;;;;;;;22.86;33.03;101512.71;107343;1267;23446;-56
2024/04/04 08:37:38;;;;;;;2.60;0.90;;;;;;;22.84;32.63;101516.52;107220;1267;25386;-56
2024/04/04 08:40:06;;;;;;;2.30;1.00;;;;;;;22.79;32.77;101518.23;106872;1267;25394;-56
2024/04/04 08:42:34;;;;;;;1.10;0.70;;;;;;;22.76;32.55;101514.37;107072;1267;22541;-57
2024/04/04 08:45:01;;;;;;;1.90;1.00;;;;;;;22.75;30.90;101512.15;106939;1267;25417;-56
2024/04/04 08:47:29;;;;;;;1.60;1.00;;;;;;;22.77;30.36;101507.61;107213;1268;24558;-57
2024/04/04 08:49:56;;;;;;;2.20;0.80;;;;;;;22.81;29.87;101508.96;107033;1267;25429;-56
2024/04/04 08:52:23;;;;;;;1.20;0.80;;;;;;;22.86;29.53;101505.05;107199;1266;22527;-56
2024/04/04 08:54:50;;;;;;;2.20;0.70;;;;;;;22.91;28.85;101504.21;107561;1266;25437;-55
2024/04/04 08:57:17;;;;;;;1.80;0.70;;;;;;;22.94;28.14;101503.17;107503;1267;25491;-55
2024/04/04 08:59:59;;;;;;;0.90;0.60;;;;;;;22.94;27.99;101498.36;107209;1267;25463;-56
2024/04/04 09:02:30;;;;;;;1.70;0.70;;;;;;;22.97;28.52;101496.77;107235;1270;25379;-56
2024/04/04 09:05:04;;;;;;;1.60;0.70;;;;;;;23.03;28.29;101494.14;107247;1267;23388;-56
2024/04/04 09:07:36;;;;;;;0.90;0.60;;;;;;;23.10;28.74;101494.90;107146;1266;25373;-56
2024/04/04 09:10:03;;;;;;;1.30;0.70;;;;;;;23.21;28.89;101493.86;107172;1267;22520;-57
2024/04/04 09:12:30;;;;;;;0.70;0.50;;;;;;;23.34;28.08;101489.15;107031;1274;22615;-58
2024/04/04 09:14:58;;;;;;;2.90;0.60;;;;;;;23.44;27.78;101486.95;107174;1269;25493;-55
2024/04/04 09:17:29;;;;;;;1.00;0.70;;;;;;;23.51;27.90;101487.19;107131;1269;22697;-56
2024/04/04 09:19:56;;;;;;;2.70;0.70;;;;;;;23.59;27.42;101488.45;106957;1253;24224;-56
2024/04/04 09:22:25;;;;;;;1.60;0.70;;;;;;;23.65;27.46;101490.48;107112;1266;25301;-57
2024/04/04 09:25:02;;;;;;;1.50;0.80;;;;;;;23.70;26.93;101486.45;107146;1267;25379;-57
2024/04/04 09:27:38;;;;;;;0.70;0.60;;;;;;;23.76;26.29;101488.18;107216;1268;25408;-56
2024/04/04 09:30:10;;;;;;;1.80;0.70;;;;;;;23.83;26.09;101486.49;107348;1267;25413;-56
2024/04/04 09:32:37;;;;;;;1.70;0.60;;;;;;;23.88;26.09;101487.27;107243;1267;25427;-57
2024/04/04 09:35:05;;;;;;;2.30;0.60;;;;;;;23.91;26.05;101482.41;107302;1258;25418;-57
2024/04/04 09:37:32;;;;;;;0.70;0.50;;;;;;;23.95;25.94;101481.13;107148;1268;25351;-57
2024/04/04 09:40:00;;;;;;;1.20;0.60;;;;;;;23.96;25.94;101483.68;107315;1267;23378;-57
2024/04/04 09:42:27;;;;;;;1.20;0.60;;;;;;;23.99;26.17;101478.88;106763;1274;24223;-57
2024/04/04 09:44:54;;;;;;;5.70;1.30;;;;;;;24.01;26.19;101478.54;106576;1259;24195;-57
2024/04/04 09:47:21;;;;;;;1.60;0.90;;;;;;;24.05;25.94;101480.13;106968;1268;25591;-55
2024/04/04 09:49:49;;;;;;;2.20;0.70;;;;;;;24.10;25.76;101475.48;106722;1267;25380;-56
2024/04/04 09:52:16;;;;;;;0.80;0.70;;;;;;;24.15;25.58;101473.23;107289;1269;25504;-56
2024/04/04 09:54:43;;;;;;;1.70;0.60;;;;;;;24.20;25.67;101472.73;104772;1266;1003809;-56
2024/04/04 09:57:13;;;;;;;0.90;0.50;;;;;;;24.24;25.92;101470.48;106969;1266;25381;-56
2024/04/04 09:59:40;;;;;;;1.40;0.80;;;;;;;24.30;26.14;101466.91;107281;1267;22637;-56
2024/04/04 10:02:07;;;;;;;0.60;0.60;;;;;;;24.37;25.99;101459.73;106981;1257;25351;-57
2024/04/04 10:04:38;;;;;;;2.10;0.70;;;;;;;24.41;26.01;101457.48;107154;1267;25358;-56
2024/04/04 10:07:05;;;;;;;2.70;0.80;;;;;;;24.43;25.93;101458.39;107079;1268;25387;-55
2024/04/04 10:09:39;;;;;;;2.00;0.60;;;;;;;24.52;25.70;101460.09;107049;1273;25341;-55
2024/04/04 10:12:13;;;;;;;0.60;0.50;;;;;;;24.62;25.62;101459.50;107640;1267;23307;-56
2024/04/04 10:14:55;;;;;;;1.10;0.70;;;;;;;24.73;25.69;101453.64;107107;1267;25253;-55
2024/04/04 10:17:22;;;;;;;1.00;0.70;;;;;;;24.82;25.26;101453.89;107446;1267;25351;-56
2024/04/04 10:19:49;;;;;;;3.60;0.70;;;;;;;24.90;25.43;101453.84;107173;1267;23497;-56
2024/04/04 10:22:17;;;;;;;1.20;0.60;;;;;;;24.96;26.27;101451.46;107289;1262;25433;-56
2024/04/04 10:24:44;;;;;;;0.90;0.50;;;;;;;25.01;26.83;101452.32;107611;1267;25539;-56
2024/04/04 10:27:12;;;;;;;0.60;0.50;;;;;;;25.06;27.10;101451.83;107162;1269;22630;-56
2024/04/04 10:29:39;;;;;;;0.70;0.60;;;;;;;25.10;27.05;101451.73;107032;1269;25416;-56
2024/04/04 10:32:10;;;;;;;0.60;0.60;;;;;;;25.13;27.57;101454.73;107243;1251;23294;-56
2024/04/04 10:34:37;;;;;;;3.50;0.70;;;;;;;25.11;28.40;101453.46;106983;1268;25417;-57
2024/04/04 10:37:05;;;;;;;0.90;0.50;;;;;;;25.06;28.74;101452.02;107653;1256;25501;-56
2024/04/04 10:39:34;;;;;;;1.10;0.50;;;;;;;24.99;28.70;101450.00;107197;1250;25567;-56
2024/04/04 10:42:01;;;;;;;0.90;0.60;;;;;;;24.98;28.65;101450.06;107090;1253;25376;-56
2024/04/04 10:44:29;;;;;;;0.50;0.40;;;;;;;24.98;28.36;101445.85;107324;1265;25450;-56
2024/04/04 10:46:56;;;;;;;0.70;0.50;;;;;;;25.00;28.64;101444.42;107427;1254;22547;-56
2024/04/04 10:49:27;;;;;;;0.70;0.60;;;;;;;25.01;28.89;101444.16;107077;1272;24308;-57
2024/04/04 10:51:55;;;;;;;;;;;;;;;24.96;28.97;101446.70;107090;1253;25415;-57
2024/04/04 10:54:22;;;;;;;2.70;0.90;;;;;;;24.86;29.80;101445.31;107008;1266;22531;-57
2024/04/04 10:56:50;;;;;;;1.90;1.00;;;;;;;24.76;31.37;101443.69;106605;1269;258238;-56
2024/04/04 10:59:18;;;;;;;1.60;1.10;;;;;;;24.71;32.53;101450.02;106693;1273;25419;-56
2024/04/04 11:01:46;;;;;;;1.80;1.00;;;;;;;24.68;33.37;101448.48;106822;1269;24199;-56
2024/04/04 11:04:14;;;;;;;3.70;1.30;;;;;;;24.60;34.26;101449.02;106828;1269;22671;-56
2024/04/04 11:06:42;;;;;;;1.60;1.10;;;;;;;24.51;34.91;101442.06;106644;1258;24376;-56
2024/04/04 11:09:16;;;;;;;2.50;1.40;;;;;;;24.42;35.55;101447.68;106720;1261;25562;-56
2024/04/04 11:11:43;;;;;;;1.60;1.20;;;;;;;24.30;36.10;101446.86;107077;1255;23085;-56
2024/04/04 11:14:13;;;;;;;4.00;1.60;;;;;;;24.20;36.53;101445.52;107504;1255;22779;-56
2024/04/04 11:16:41;;;;;;;2.20;1.80;;;;;;;24.17;36.84;101450.95;107235;1256;24259;-56
2024/04/04 11:19:09;;;;;;;4.20;1.40;;;;;;;24.10;37.11;101449.26;107402;1253;25396;-56